Time;durP1;ratioP1;P1;durP2;ratioP2;P2;SDS_P1;SDS_P2;PMS_P1;PMS_P2;Temp;Humidity;BMP_temperature;BMP_pressure;BME280_temperature;BME280_humidity;BME280_pressure;Samples;Min_cycle;Max_cycle;Signal;HPM_P1;HPM_P2
2023/04/03 00:04:58;;;;;;;4.40;1.80;;;0.80;99.90;;;;;;10207235;29;20341;-88
2023/04/03 00:10:00;;;;;;;5.47;2.50;;;0.70;99.90;;;;;;10206722;29;20307;-88
2023/04/03 00:15:03;;;;;;;5.53;1.87;;;0.50;99.90;;;;;;10205850;29;20242;-88
2023/04/03 00:20:06;;;;;;;5.73;1.93;;;0.50;99.90;;;;;;10207281;29;20242;-88
2023/04/03 00:25:09;;;;;;;7.40;1.63;;;0.50;99.90;;;;;;10204485;29;20288;-89
2023/04/03 00:30:15;;;;;;;5.27;1.77;;;0.40;99.90;;;;;;10205834;29;20235;-89
2023/04/03 00:35:18;;;;;;;5.80;1.40;;;0.40;99.90;;;;;;10207493;29;20757;-88
2023/04/03 00:40:25;;;;;;;4.17;1.17;;;0.50;99.90;;;;;;10212838;29;20207;-88
2023/04/03 00:45:42;;;;;;;5.07;1.93;;;0.50;99.90;;;;;;10212302;29;20333;-88
2023/04/03 00:50:45;;;;;;;6.50;1.83;;;0.50;99.90;;;;;;10212450;29;21063;-88
2023/04/03 00:55:50;;;;;;;3.73;1.80;;;0.70;99.90;;;;;;10212505;29;20278;-88
2023/04/03 01:00:57;;;;;;;2.80;1.50;;;0.60;99.90;;;;;;10213925;29;20235;-88
2023/04/03 01:06:00;;;;;;;3.87;1.57;;;0.60;99.90;;;;;;10210278;29;20624;-88
2023/04/03 01:11:03;;;;;;;6.30;1.73;;;0.50;99.90;;;;;;10211933;29;20294;-88
2023/04/03 01:16:06;;;;;;;3.53;1.43;;;0.70;99.90;;;;;;10212463;29;20842;-88
2023/04/03 01:21:16;;;;;;;3.50;1.07;;;0.50;99.90;;;;;;10213215;29;20756;-88
2023/04/03 01:26:19;;;;;;;4.00;1.27;;;0.20;99.90;;;;;;10212000;29;20266;-88
2023/04/03 01:31:35;;;;;;;3.73;1.37;;;0.30;99.90;;;;;;10234746;29;20266;-89
2023/04/03 01:36:38;;;;;;;3.80;1.70;;;0.20;99.90;;;;;;10210632;29;20242;-88
2023/04/03 01:41:41;;;;;;;3.23;1.63;;;0.30;99.90;;;;;;10212182;29;20696;-87
2023/04/03 01:46:52;;;;;;;4.23;1.80;;;0.20;99.90;;;;;;10208995;29;20235;-88
2023/04/03 01:51:57;;;;;;;5.83;1.53;;;0.20;99.90;;;;;;10210400;29;20635;-88
2023/04/03 01:57:00;;;;;;;4.00;1.40;;;0.50;99.90;;;;;;10211805;29;20263;-88
2023/04/03 02:02:02;;;;;;;4.20;1.37;;;0.30;99.90;;;;;;10208311;29;20234;-88
2023/04/03 02:07:05;;;;;;;5.00;1.27;;;0.20;99.90;;;;;;10210007;29;20239;-88
2023/04/03 02:12:08;;;;;;;4.20;1.43;;;0.20;99.90;;;;;;10209397;29;20739;-88
2023/04/03 02:17:11;;;;;;;5.47;1.30;;;0.20;99.90;;;;;;10208591;29;20263;-89
2023/04/03 02:22:13;;;;;;;3.17;1.20;;;0.30;99.90;;;;;;10210648;29;20235;-88
2023/04/03 02:27:16;;;;;;;3.27;1.47;;;0.10;99.90;;;;;;10209506;29;20286;-89
2023/04/03 02:32:19;;;;;;;4.13;1.37;;;0.30;99.90;;;;;;10208153;29;20234;-88
2023/04/03 02:37:22;;;;;;;3.37;1.13;;;0.40;99.90;;;;;;10207862;29;20239;-88
2023/04/03 02:42:27;;;;;;;2.53;1.10;;;0.40;99.90;;;;;;10185120;29;20255;-88
2023/04/03 02:47:30;;;;;;;2.90;1.80;;;0.50;99.90;;;;;;10175380;29;20286;-88
2023/04/03 02:52:33;;;;;;;6.30;1.40;;;0.60;99.90;;;;;;10208494;29;20302;-88
2023/04/03 02:57:36;;;;;;;4.60;1.47;;;0.60;99.90;;;;;;10206996;29;20290;-88
2023/04/03 03:02:39;;;;;;;3.37;1.50;;;0.50;99.90;;;;;;10206543;29;20280;-88
2023/04/03 03:07:42;;;;;;;3.90;1.17;;;0.50;99.90;;;;;;10191237;29;20239;-89
2023/04/03 03:12:45;;;;;;;3.60;1.33;;;0.40;99.90;;;;;;10206714;29;20302;-88
2023/04/03 03:17:47;;;;;;;2.80;1.33;;;0.40;99.90;;;;;;10208064;29;20282;-88
2023/04/03 03:22:50;;;;;;;3.83;1.53;;;0.50;99.90;;;;;;10205780;29;20258;-88
2023/04/03 03:27:53;;;;;;;3.63;1.73;;;0.40;99.90;;;;;;10207759;29;20292;-88
2023/04/03 03:32:56;;;;;;;3.87;0.97;;;0.60;99.90;;;;;;10206232;29;20242;-87
2023/04/03 03:37:59;;;;;;;2.73;1.37;;;0.50;99.90;;;;;;10206699;29;20251;-88
2023/04/03 03:43:02;;;;;;;8.40;1.67;;;0.80;99.90;;;;;;10205606;29;20360;-88
2023/04/03 03:48:05;;;;;;;3.10;1.10;;;0.90;99.90;;;;;;10205944;29;20239;-88
2023/04/03 03:53:08;;;;;;;5.50;1.20;;;0.50;99.90;;;;;;10205570;29;20297;-87
2023/04/03 03:58:11;;;;;;;6.30;1.80;;;0.60;99.90;;;;;;10206700;29;20286;-87
2023/04/03 04:03:14;;;;;;;5.13;1.10;;;0.40;99.90;;;;;;10205597;29;20360;-88
2023/04/03 04:08:19;;;;;;;7.00;1.20;;;0.40;99.90;;;;;;10204673;29;20234;-87
2023/04/03 04:13:22;;;;;;;4.13;1.23;;;0.50;99.90;;;;;;10182142;29;20243;-87
2023/04/03 04:18:25;;;;;;;2.90;1.13;;;0.50;99.90;;;;;;10205320;29;20750;-89
2023/04/03 04:23:28;;;;;;;6.63;1.23;;;0.60;99.90;;;;;;10204653;29;20330;-89
2023/04/03 04:28:33;;;;;;;3.03;0.90;;;0.70;99.90;;;;;;10203907;29;20228;-87
2023/04/03 04:33:38;;;;;;;3.77;1.20;;;1.00;99.90;;;;;;10203869;29;20241;-87
2023/04/03 04:38:52;;;;;;;1.20;0.67;;;0.70;99.90;;;;;;10205335;29;20302;-87
2023/04/03 04:43:58;;;;;;;0.87;0.40;;;0.70;99.90;;;;;;10194092;29;20254;-95
2023/04/03 04:49:07;;;;;;;6.33;1.23;;;1.00;99.90;;;;;;10210601;29;20203;-94
2023/04/03 04:54:10;;;;;;;2.57;1.23;;;2.70;99.90;;;;;;10208370;29;20220;-96
2023/04/03 04:59:13;;;;;;;2.93;1.23;;;2.50;99.90;;;;;;10211764;29;20608;-94
2023/04/03 05:04:17;;;;;;;1.83;1.13;;;2.00;99.90;;;;;;10201030;29;20224;-96
2023/04/03 05:09:24;;;;;;;4.63;1.43;;;1.90;99.90;;;;;;10213406;29;20287;-96
2023/04/03 05:14:28;;;;;;;3.70;1.73;;;2.00;99.90;;;;;;10225286;29;20209;-95
2023/04/03 05:19:35;;;;;;;6.67;2.30;;;1.70;99.90;;;;;;10245881;29;20240;-95
2023/04/03 05:24:39;;;;;;;6.10;1.63;;;1.90;99.90;;;;;;10247088;29;20228;-96
2023/04/03 05:29:43;;;;;;;5.77;1.70;;;1.60;99.90;;;;;;10265045;29;20196;-96
2023/04/03 05:34:52;;;;;;;7.20;2.57;;;1.70;99.90;;;;;;10262124;29;20203;-95
2023/04/03 05:39:55;;;;;;;5.67;2.37;;;1.50;99.90;;;;;;10257149;29;20227;-96
2023/04/03 05:44:57;;;;;;;4.17;1.97;;;1.30;99.90;;;;;;10246957;29;20232;-95
2023/04/03 05:50:00;;;;;;;8.93;2.87;;;1.30;99.90;;;;;;10228638;29;20600;-95
2023/04/03 05:55:04;;;;;;;2.87;1.53;;;1.30;99.90;;;;;;10217111;29;20215;-95
2023/04/03 06:00:14;;;;;;;3.40;1.63;;;1.90;99.90;;;;;;10227085;29;20239;-96
2023/04/03 06:05:21;;;;;;;4.50;1.60;;;2.20;99.90;;;;;;10227311;29;20223;-94
2023/04/03 06:10:24;;;;;;;4.13;2.13;;;2.20;99.90;;;;;;10240168;29;20246;-95
2023/04/03 06:15:28;;;;;;;5.80;2.23;;;2.40;99.90;;;;;;10247444;29;20674;-96
2023/04/03 06:20:31;;;;;;;3.80;1.17;;;2.30;99.50;;;;;;10248932;29;20234;-95
2023/04/03 06:25:34;;;;;;;4.20;1.43;;;2.30;98.90;;;;;;10255476;29;20678;-95
2023/04/03 06:30:37;;;;;;;2.50;0.93;;;2.20;98.50;;;;;;10233395;29;20207;-95
2023/04/03 06:35:40;;;;;;;4.13;1.73;;;2.40;99.80;;;;;;10234616;29;20732;-95
2023/04/03 06:40:43;;;;;;;5.03;1.17;;;3.10;99.90;;;;;;10254684;29;20208;-94
2023/04/03 06:45:46;;;;;;;1.57;1.00;;;3.10;95.70;;;;;;10249177;29;20215;-95
2023/04/03 06:50:49;;;;;;;2.27;1.20;;;3.00;95.00;;;;;;10243075;29;20200;-95
2023/04/03 06:55:51;;;;;;;3.73;1.33;;;2.80;94.50;;;;;;10234993;29;20215;-95
2023/04/03 07:00:55;;;;;;;5.27;1.47;;;2.80;94.60;;;;;;10227706;29;20208;-95
2023/04/03 07:05:58;;;;;;;2.27;0.90;;;3.10;94.70;;;;;;10243959;29;20215;-96
2023/04/03 07:11:01;;;;;;;4.23;1.53;;;3.00;94.20;;;;;;10249595;29;20230;-95
2023/04/03 07:16:05;;;;;;;2.67;1.00;;;3.40;95.00;;;;;;10231414;29;20262;-96
2023/04/03 07:21:08;;;;;;;2.37;1.07;;;3.40;96.80;;;;;;10243641;29;20243;-95
2023/04/03 07:26:10;;;;;;;3.83;1.00;;;4.10;92.90;;;;;;10245153;29;20224;-96
2023/04/03 07:31:14;;;;;;;1.53;0.80;;;4.20;93.50;;;;;;10238070;29;20554;-96
2023/04/03 07:36:20;;;;;;;3.93;0.97;;;4.10;89.00;;;;;;10231149;29;20231;-96
2023/04/03 07:41:23;;;;;;;1.60;1.10;;;3.90;87.90;;;;;;10223765;29;20704;-96
2023/04/03 07:46:26;;;;;;;2.40;1.37;;;4.00;90.10;;;;;;10191241;29;20224;-95
2023/04/03 07:51:29;;;;;;;3.97;1.50;;;3.90;85.40;;;;;;10197333;29;20208;-96
2023/04/03 07:56:32;;;;;;;2.73;0.90;;;3.40;87.90;;;;;;10224864;29;20738;-95
2023/04/03 08:01:34;;;;;;;5.10;1.90;;;4.00;92.40;;;;;;10215327;29;20211;-96
2023/04/03 08:06:37;;;;;;;4.43;0.97;;;4.50;85.20;;;;;;10226002;29;20235;-95
2023/04/03 08:11:48;;;;;;;6.50;1.90;;;4.00;80.60;;;;;;10213617;29;20521;-96
2023/04/03 08:16:51;;;;;;;3.13;1.00;;;4.20;89.10;;;;;;10239271;29;20663;-96
2023/04/03 08:21:55;;;;;;;2.37;1.37;;;4.20;79.70;;;;;;10224815;29;20203;-96
2023/04/03 08:26:58;;;;;;;1.00;0.73;;;4.90;69.10;;;;;;10225969;29;20233;-95
2023/04/03 08:32:00;;;;;;;2.60;1.03;;;5.30;59.10;;;;;;10221515;29;20210;-96
2023/04/03 08:37:03;;;;;;;1.23;0.80;;;5.60;53.60;;;;;;10245093;29;20228;-96
2023/04/03 08:42:24;;;;;;;3.87;1.20;;;6.00;56.70;;;;;;10251616;29;20236;-96
2023/04/03 08:47:58;;;;;;;2.90;1.37;;;6.40;50.20;;;;;;10246017;29;20230;-96
2023/04/03 08:53:04;;;;;;;4.23;1.10;;;4.90;39.90;;;;;;10245534;29;20207;-96
2023/04/03 08:58:16;;;;;;;3.33;0.93;;;4.30;39.10;;;;;;10251499;29;20234;-96
2023/04/03 09:03:21;;;;;;;3.90;1.20;;;4.10;44.00;;;;;;10215059;29;20204;-95
2023/04/03 09:08:40;;;;;;;1.43;1.33;;;3.90;43.30;;;;;;10216836;29;20219;-96
2023/04/03 09:14:13;;;;;;;6.10;2.23;;;4.20;47.70;;;;;;10252675;29;20239;-96
2023/04/03 09:19:23;;;;;;;2.53;1.20;;;4.60;45.70;;;;;;10255488;29;20231;-96
2023/04/03 09:24:26;;;;;;;1.80;0.90;;;5.10;53.30;;;;;;10241368;29;20247;-96
2023/04/03 09:29:29;;;;;;;3.80;1.30;;;5.10;46.60;;;;;;10249686;29;20274;-96
2023/04/03 09:34:36;;;;;;;4.97;1.63;;;4.80;45.20;;;;;;10228872;29;20235;-96
2023/04/03 09:39:53;;;;;;;3.00;1.60;;;4.50;43.30;;;;;;10222143;29;20274;-96
2023/04/03 09:45:02;;;;;;;2.47;1.50;;;5.20;48.20;;;;;;10218769;29;20223;-96
2023/04/03 09:50:14;;;;;;;3.40;1.17;;;6.30;59.10;;;;;;10202080;29;20990;-96
2023/04/03 09:55:18;;;;;;;4.07;1.30;;;6.10;43.60;;;;;;10212741;29;20414;-95
2023/04/03 10:00:25;;;;;;;2.70;1.37;;;5.10;42.20;;;;;;10223355;29;20199;-96
2023/04/03 10:05:35;;;;;;;4.33;1.70;;;5.20;40.00;;;;;;10222678;29;20223;-95
2023/04/03 10:10:39;;;;;;;3.03;1.40;;;5.30;36.50;;;;;;10216285;29;20692;-96
2023/04/03 10:15:46;;;;;;;5.33;1.17;;;5.40;33.60;;;;;;10181851;29;20207;-96
2023/04/03 10:20:52;;;;;;;1.63;0.57;;;6.10;46.30;;;;;;10204604;29;20221;-96
2023/04/03 10:26:29;;;;;;;1.83;0.83;;;6.80;90.60;;;;;;10239683;29;20594;-96
2023/04/03 10:31:44;;;;;;;2.93;1.23;;;7.10;34.40;;;;;;10221465;29;20195;-96
2023/04/03 10:36:53;;;;;;;17.40;3.40;;;6.90;30.70;;;;;;10212921;29;20231;-96
2023/04/03 10:41:58;;;;;;;13.43;2.90;;;7.70;52.40;;;;;;10219101;29;20852;-96
2023/04/03 10:47:54;;;;;;;12.13;2.53;;;8.60;59.80;;;;;;10214257;29;20285;-89
2023/04/03 10:53:14;;;;;;;6.17;2.20;;;7.70;47.70;;;;;;10217742;29;20235;-96
2023/04/03 10:58:34;;;;;;;2.63;1.90;;;8.20;44.80;;;;;;10217492;29;20287;-95
2023/04/03 11:03:45;;;;;;;2.33;1.60;;;7.10;46.10;;;;;;10215142;29;20212;-95
2023/04/03 11:08:57;;;;;;;1.90;1.10;;;7.00;48.30;;;;;;10237791;29;20240;-96
2023/04/03 11:14:16;;;;;;;1.40;0.80;;;6.90;48.50;;;;;;10261520;28;20198;-96
2023/04/03 11:19:23;;;;;;;4.27;1.43;;;6.90;45.20;;;;;;10245355;29;20272;-96
2023/04/03 11:24:31;;;;;;;3.70;1.40;;;6.70;42.90;;;;;;10254490;29;20221;-96
2023/04/03 11:29:39;;;;;;;3.33;1.93;;;6.90;44.20;;;;;;10240784;29;20209;-95
2023/04/03 11:34:47;;;;;;;3.13;1.33;;;7.50;43.80;;;;;;10239058;29;20569;-96
2023/04/03 11:39:58;;;;;;;2.97;1.23;;;7.80;44.80;;;;;;10244648;29;20611;-96
2023/04/03 11:45:23;;;;;;;2.97;1.37;;;7.50;45.30;;;;;;10228294;29;20598;-91
2023/04/03 11:50:35;;;;;;;5.93;1.87;;;7.60;45.20;;;;;;10188690;29;20308;-83
2023/04/03 11:55:49;;;;;;;3.90;1.57;;;7.60;46.30;;;;;;10200995;29;20237;-84
2023/04/03 12:00:52;;;;;;;3.90;2.00;;;6.60;40.20;;;;;;10204580;29;20249;-84
2023/04/03 12:06:07;;;;;;;2.50;1.10;;;6.40;43.20;;;;;;10204241;29;20316;-84
2023/04/03 12:11:12;;;;;;;5.70;1.93;;;6.70;46.80;;;;;;10197549;29;20268;-84
2023/04/03 12:16:34;;;;;;;6.60;1.73;;;7.60;38.90;;;;;;10179345;29;20273;-87
2023/04/03 12:21:36;;;;;;;6.07;1.83;;;7.60;43.90;;;;;;10211154;29;20236;-84
2023/04/03 12:26:51;;;;;;;2.67;1.53;;;7.10;37.00;;;;;;10204639;29;20462;-84
2023/04/03 12:32:31;;;;;;;1.93;1.40;;;7.30;36.50;;;;;;10220525;28;20235;-85
2023/04/03 12:37:55;;;;;;;1.67;1.30;;;7.10;36.70;;;;;;10212063;29;20692;-85
2023/04/03 12:43:48;;;;;;;3.00;1.53;;;7.50;42.70;;;;;;10210031;29;20643;-84
2023/04/03 12:49:00;;;;;;;3.17;1.77;;;7.80;39.90;;;;;;10112027;29;21018;-84
2023/04/03 12:54:13;;;;;;;3.63;1.87;;;7.10;38.70;;;;;;10127810;29;20258;-84
2023/04/03 12:59:28;;;;;;;1.00;0.80;;;7.10;43.50;;;;;;10137332;29;20239;-95
2023/04/03 13:04:32;;;;;;;3.23;1.50;;;7.80;47.50;;;;;;10136551;29;20208;-95
2023/04/03 13:09:35;;;;;;;4.73;1.40;;;7.40;43.20;;;;;;10136114;29;20212;-96
2023/04/03 13:14:38;;;;;;;3.30;2.43;;;7.00;42.90;;;;;;10138847;29;20207;-95
2023/04/03 13:19:41;;;;;;;4.90;1.53;;;7.40;42.70;;;;;;10202971;29;20217;-96
2023/04/03 13:24:47;;;;;;;4.23;1.60;;;7.70;44.30;;;;;;10200943;29;20228;-96
2023/04/03 13:29:56;;;;;;;4.03;1.47;;;7.40;42.10;;;;;;10218846;29;20214;-96
2023/04/03 13:35:23;;;;;;;2.23;1.10;;;7.60;43.10;;;;;;10221392;29;20263;-96
2023/04/03 13:40:26;;;;;;;2.77;1.73;;;7.70;41.80;;;;;;10216051;29;20216;-95
2023/04/03 13:45:34;;;;;;;5.23;1.47;;;7.30;41.40;;;;;;10216748;29;20582;-95
2023/04/03 13:50:56;;;;;;;2.10;1.43;;;6.80;40.80;;;;;;10216510;29;20203;-93
2023/04/03 13:56:17;;;;;;;2.77;1.37;;;6.50;40.60;;;;;;10215352;29;20624;-96
2023/04/03 14:01:22;;;;;;;1.60;1.00;;;6.00;41.60;;;;;;10202479;29;20244;-96
2023/04/03 14:06:25;;;;;;;3.37;1.67;;;6.00;41.70;;;;;;10236830;29;20244;-96
2023/04/03 14:11:30;;;;;;;3.40;1.60;;;6.50;40.10;;;;;;10244829;29;20243;-96
2023/04/03 14:16:38;;;;;;;2.20;1.63;;;6.70;37.90;;;;;;10165814;29;20593;-94
2023/04/03 14:21:41;;;;;;;2.30;1.47;;;6.00;37.70;;;;;;10216086;29;20252;-96
2023/04/03 14:26:43;;;;;;;2.43;1.43;;;6.10;41.90;;;;;;10216467;29;20585;-82
2023/04/03 14:31:48;;;;;;;1.73;1.00;;;6.00;36.10;;;;;;10198360;29;20272;-83
2023/04/03 14:36:53;;;;;;;2.80;1.63;;;6.50;38.00;;;;;;10202251;29;20313;-83
2023/04/03 14:41:56;;;;;;;1.80;1.33;;;5.90;36.40;;;;;;10208456;29;20282;-84
2023/04/03 14:46:59;;;;;;;2.10;1.77;;;5.50;41.30;;;;;;10207643;29;20658;-84
2023/04/03 14:52:02;;;;;;;2.63;1.87;;;5.30;44.10;;;;;;10203523;29;20338;-84
2023/04/03 14:57:11;;;;;;;2.57;1.80;;;5.30;44.40;;;;;;10205625;29;20737;-83
2023/04/03 15:02:30;;;;;;;3.10;1.77;;;5.00;42.90;;;;;;10207433;29;20298;-83
2023/04/03 15:07:36;;;;;;;2.13;1.33;;;4.80;33.40;;;;;;10207867;29;20326;-83
2023/04/03 15:12:39;;;;;;;3.13;1.67;;;4.70;25.30;;;;;;10209290;29;20304;-83
2023/04/03 15:17:42;;;;;;;1.60;1.10;;;5.10;27.10;;;;;;10208155;29;20556;-83
2023/04/03 15:22:45;;;;;;;2.00;1.33;;;5.40;27.20;;;;;;10192014;29;20657;-83
2023/04/03 15:27:48;;;;;;;5.87;1.23;;;5.20;26.50;;;;;;10208753;29;20262;-83
2023/04/03 15:32:51;;;;;;;4.67;1.40;;;5.30;26.80;;;;;;10208055;29;20399;-84
2023/04/03 15:37:53;;;;;;;1.57;1.33;;;5.50;25.20;;;;;;10208709;29;20227;-83
2023/04/03 15:42:56;;;;;;;2.27;1.10;;;5.60;27.20;;;;;;10208764;29;20294;-83
2023/04/03 15:47:59;;;;;;;1.53;1.00;;;5.50;24.70;;;;;;10207958;29;20270;-83
2023/04/03 15:53:02;;;;;;;1.73;1.27;;;5.20;26.80;;;;;;10208388;29;20240;-83
2023/04/03 15:58:05;;;;;;;1.63;1.50;;;4.90;27.80;;;;;;10208137;29;20330;-83
2023/04/03 16:03:15;;;;;;;2.63;1.40;;;5.00;28.40;;;;;;10206117;29;20605;-83
2023/04/03 16:08:18;;;;;;;4.53;3.10;;;5.10;29.00;;;;;;10196246;29;20286;-83
2023/04/03 16:13:21;;;;;;;4.07;1.50;;;5.10;27.50;;;;;;10206083;29;20258;-83
2023/04/03 16:18:23;;;;;;;2.70;1.37;;;5.00;27.90;;;;;;10207522;29;20270;-83
2023/04/03 16:23:26;;;;;;;2.63;1.20;;;4.70;27.00;;;;;;10209665;29;20292;-84
2023/04/03 16:28:29;;;;;;;1.47;1.00;;;4.90;37.00;;;;;;9881473;29;9999833;-83
2023/04/03 16:33:31;;;;;;;2.40;1.57;;;4.90;27.50;;;;;;10202794;29;20290;-83
2023/04/03 16:38:35;;;;;;;1.73;0.97;;;5.00;30.00;;;;;;10203960;29;20238;-83
2023/04/03 16:43:37;;;;;;;1.57;1.00;;;4.90;28.50;;;;;;10186273;29;20629;-83
2023/04/03 16:48:40;;;;;;;1.23;0.87;;;4.90;26.90;;;;;;10205265;29;20319;-83
2023/04/03 16:53:42;;;;;;;6.60;2.83;;;5.10;28.60;;;;;;10205674;29;20294;-83
2023/04/03 16:58:45;;;;;;;5.57;2.90;;;4.40;28.70;;;;;;10207208;29;20712;-83
2023/04/03 17:03:48;;;;;;;5.67;2.13;;;4.00;30.50;;;;;;10206370;29;20235;-83
2023/04/03 17:08:52;;;;;;;4.00;2.03;;;3.80;31.00;;;;;;9861997;29;9999613;-82
2023/04/03 17:14:04;;;;;;;6.00;4.10;;;3.70;46.20;;;;;;10201401;29;20239;-82
2023/04/03 17:19:07;;;;;;;3.87;1.90;;;3.60;37.40;;;;;;10200816;29;20294;-82
2023/04/03 17:24:12;;;;;;;4.87;2.87;;;3.80;47.00;;;;;;10210616;29;20239;-83
2023/04/03 17:29:15;;;;;;;4.07;1.87;;;4.00;38.80;;;;;;10209197;29;20703;-83
2023/04/03 17:34:17;;;;;;;3.43;2.07;;;4.10;39.70;;;;;;10207840;29;20293;-83
2023/04/03 17:39:20;;;;;;;4.57;2.10;;;4.20;39.50;;;;;;10191354;29;20311;-83
2023/04/03 17:44:23;;;;;;;2.90;1.80;;;4.30;40.20;;;;;;10183243;29;20325;-83
2023/04/03 17:49:25;;;;;;;8.03;4.23;;;4.40;42.10;;;;;;10210285;29;20246;-83
2023/04/03 17:54:28;;;;;;;3.90;2.37;;;4.40;43.90;;;;;;10204752;29;20243;-83
2023/04/03 17:59:31;;;;;;;6.07;2.40;;;4.20;41.40;;;;;;10208847;29;20271;-82
2023/04/03 18:04:33;;;;;;;4.47;2.70;;;4.10;45.60;;;;;;10210053;29;20253;-82
2023/04/03 18:09:39;;;;;;;2.40;1.60;;;4.20;45.80;;;;;;10200475;29;20345;-83
2023/04/03 18:14:43;;;;;;;2.63;1.50;;;4.20;47.20;;;;;;10207825;29;20674;-82
2023/04/03 18:19:47;;;;;;;3.67;2.13;;;4.20;48.70;;;;;;10206173;29;20232;-83
2023/04/03 18:24:51;;;;;;;3.03;1.90;;;4.20;48.90;;;;;;10209486;29;20255;-83
2023/04/03 18:30:01;;;;;;;4.63;2.73;;;4.10;49.70;;;;;;10206628;29;20795;-83
2023/04/03 18:35:05;;;;;;;4.03;2.20;;;4.00;48.20;;;;;;10207399;29;20628;-83
2023/04/03 18:40:08;;;;;;;5.43;2.30;;;3.90;49.50;;;;;;10211473;29;20640;-83
2023/04/03 18:45:19;;;;;;;3.10;1.90;;;3.80;50.60;;;;;;10212220;29;20797;-83
2023/04/03 18:50:21;;;;;;;4.07;1.70;;;3.70;51.60;;;;;;10212347;29;20262;-83
2023/04/03 18:55:24;;;;;;;2.30;1.60;;;3.70;49.80;;;;;;10206609;29;20204;-84
2023/04/03 19:00:27;;;;;;;3.37;1.67;;;3.50;52.30;;;;;;10211780;29;20302;-84
2023/04/03 19:05:30;;;;;;;2.30;1.80;;;3.20;50.10;;;;;;10206432;29;20712;-83
2023/04/03 19:10:32;;;;;;;6.03;2.03;;;3.00;48.40;;;;;;10213520;29;20231;-83
2023/04/03 19:15:35;;;;;;;2.03;1.67;;;2.80;48.10;;;;;;10209802;29;20200;-81
2023/04/03 19:20:38;;;;;;;3.73;2.57;;;2.00;53.60;;;;;;10208444;29;20247;-82
2023/04/03 19:25:40;;;;;;;7.83;4.00;;;2.00;73.20;;;;;;10209184;29;20222;-82
2023/04/03 19:30:47;;;;;;;4.87;3.17;;;1.80;81.20;;;;;;10210342;29;20274;-83
2023/04/03 19:35:49;;;;;;;6.23;3.73;;;1.70;63.00;;;;;;10212194;29;20199;-83
2023/04/03 19:40:52;;;;;;;6.20;3.17;;;1.70;68.80;;;;;;10208397;29;20239;-82
2023/04/03 19:45:55;;;;;;;7.03;3.63;;;1.70;75.20;;;;;;10206340;29;20582;-81
2023/04/03 19:50:57;;;;;;;10.03;4.70;;;1.70;77.50;;;;;;10207783;29;20261;-81
2023/04/03 19:56:00;;;;;;;7.90;4.90;;;1.60;80.30;;;;;;10207762;29;20316;-81
2023/04/03 20:01:02;;;;;;;8.33;4.70;;;1.40;87.80;;;;;;10194713;29;20234;-81
2023/04/03 20:06:05;;;;;;;7.77;5.10;;;1.10;91.80;;;;;;10207386;29;20296;-82
2023/04/03 20:11:08;;;;;;;9.53;5.53;;;1.10;99.90;;;;;;10207429;29;20641;-82
2023/04/03 20:16:11;;;;;;;8.07;4.83;;;0.80;99.90;;;;;;10208469;29;20308;-82
2023/04/03 20:21:14;;;;;;;5.67;3.77;;;0.60;99.90;;;;;;10207175;29;20235;-83
2023/04/03 20:26:22;;;;;;;4.40;1.90;;;0.30;99.90;;;;;;10211018;29;20270;-83
2023/04/03 20:31:27;;;;;;;2.53;1.67;;;0.40;99.90;;;;;;10208953;29;20529;-82
2023/04/03 20:36:30;;;;;;;6.43;2.83;;;0.80;99.90;;;;;;10209547;29;20222;-82
2023/04/03 20:41:35;;;;;;;4.97;3.20;;;1.00;99.90;;;;;;10206142;29;20270;-83
2023/04/03 20:46:38;;;;;;;6.03;3.80;;;0.60;99.90;;;;;;10204983;29;20954;-82
2023/04/03 20:51:54;;;;;;;5.73;3.87;;;1.00;99.90;;;;;;10207831;29;20199;-82
2023/04/03 20:56:57;;;;;;;5.67;3.70;;;1.60;99.90;;;;;;10220084;29;20234;-82
2023/04/03 21:02:00;;;;;;;5.23;3.20;;;1.70;99.90;;;;;;10210386;29;20212;-82
2023/04/03 21:07:43;;;;;;;5.77;3.00;;;1.70;99.90;;;;;;10209581;29;20255;-82
2023/04/03 21:13:24;;;;;;;4.33;2.80;;;2.00;99.90;;;;;;10213233;29;20242;-82
2023/04/03 21:18:53;;;;;;;5.17;2.77;;;2.40;99.90;;;;;;10208469;29;20623;-82
2023/04/03 21:23:56;;;;;;;3.00;2.13;;;2.70;99.90;;;;;;10176881;29;20904;-82
2023/04/03 21:28:59;;;;;;;5.17;2.73;;;3.10;99.90;;;;;;10202340;29;20267;-82
2023/04/03 21:34:02;;;;;;;4.90;3.23;;;3.60;99.90;;;;;;10214334;29;20565;-82
2023/04/03 21:39:04;;;;;;;6.57;3.03;;;3.00;99.40;;;;;;10213536;29;20259;-82
2023/04/03 21:44:07;;;;;;;4.17;2.10;;;2.60;98.10;;;;;;10212747;29;20664;-82
2023/04/03 21:49:10;;;;;;;5.30;3.83;;;2.60;99.90;;;;;;10214568;29;20641;-82
2023/04/03 21:54:14;;;;;;;5.80;3.30;;;2.20;97.90;;;;;;10212830;29;20310;-82
2023/04/03 21:59:17;;;;;;;7.17;3.47;;;1.90;98.80;;;;;;10227333;29;20654;-82
2023/04/03 22:04:20;;;;;;;6.93;4.00;;;1.70;98.10;;;;;;10212611;29;20211;-83
2023/04/03 22:14:54;;;;;;;4.60;3.13;;;1.20;98.30;;;;;;11247612;23;20291;-83
2023/04/03 22:19:57;;;;;;;8.13;3.73;;;1.20;99.20;;;;;;10168304;29;20302;-83
2023/04/03 22:25:00;;;;;;;9.67;4.27;;;1.30;99.90;;;;;;10170569;29;20290;-83
2023/04/03 22:30:03;;;;;;;4.33;2.77;;;1.50;98.60;;;;;;10149296;29;20314;-83
2023/04/03 22:35:06;;;;;;;6.97;3.80;;;1.10;99.90;;;;;;10170579;29;20362;-83
2023/04/03 22:40:09;;;;;;;6.93;3.97;;;1.40;99.90;;;;;;10169097;29;20243;-82
2023/04/03 22:45:12;;;;;;;8.70;4.67;;;1.30;99.00;;;;;;10169420;29;20247;-83
2023/04/03 22:50:15;;;;;;;9.23;4.77;;;1.40;98.70;;;;;;10168739;29;20627;-83
2023/04/03 22:55:17;;;;;;;8.90;4.80;;;1.30;99.00;;;;;;10169807;29;20227;-82
2023/04/03 23:00:21;;;;;;;5.67;4.00;;;1.00;98.60;;;;;;10169601;29;20308;-83
2023/04/03 23:05:24;;;;;;;9.23;4.13;;;1.00;98.90;;;;;;10169683;29;20235;-83
2023/04/03 23:10:26;;;;;;;8.30;5.10;;;0.90;98.80;;;;;;10168897;29;20276;-83
2023/04/03 23:15:29;;;;;;;9.17;4.80;;;1.20;98.90;;;;;;10167836;29;21024;-82
2023/04/03 23:20:31;;;;;;;8.30;5.07;;;1.10;99.90;;;;;;10169474;29;20708;-83
2023/04/03 23:25:34;;;;;;;11.80;5.43;;;1.30;99.90;;;;;;10168866;29;20264;-82
2023/04/03 23:30:37;;;;;;;7.23;4.10;;;1.10;99.80;;;;;;10167571;29;20292;-82
2023/04/03 23:35:46;;;;;;;6.77;3.43;;;1.30;99.90;;;;;;10169075;29;20759;-83
2023/04/03 23:40:49;;;;;;;8.93;4.30;;;1.50;99.90;;;;;;10167986;29;20718;-83
2023/04/03 23:45:52;;;;;;;5.00;3.47;;;1.60;99.90;;;;;;10167747;29;20251;-83
2023/04/03 23:50:55;;;;;;;8.13;3.60;;;1.40;99.90;;;;;;10168002;29;20272;-83
2023/04/03 23:55:58;;;;;;;5.23;2.73;;;1.50;99.90;;;;;;10168596;29;20228;-83
